Time;durP1;ratioP1;P1;durP2;ratioP2;P2;SDS_P1;SDS_P2;PMS_P1;PMS_P2;Temp;Humidity;BMP_temperature;BMP_pressure;BME280_temperature;BME280_humidity;BME280_pressure;Samples;Min_cycle;Max_cycle;Signal;HPM_P1;HPM_P2
2023/07/08 00:01:17;;;;;;;3.10;1.88;;;23.30;49.30;;;;;;4909907;29;20040;-50
2023/07/08 00:03:44;;;;;;;2.88;2.50;;;23.20;49.60;;;;;;4911463;29;20044;-47
2023/07/08 00:06:27;;;;;;;3.30;2.78;;;23.20;49.60;;;;;;4897578;29;20044;-51
2023/07/08 00:08:56;;;;;;;3.13;2.20;;;23.20;50.10;;;;;;4912238;29;20051;-49
2023/07/08 00:11:28;;;;;;;3.00;2.70;;;23.10;49.70;;;;;;4907765;29;20124;-50
2023/07/08 00:13:59;;;;;;;3.85;2.28;;;23.00;49.70;;;;;;4907574;29;20489;-51
2023/07/08 00:16:29;;;;;;;4.20;2.25;;;23.00;50.00;;;;;;4912846;29;20048;-51
2023/07/08 00:18:57;;;;;;;4.03;2.65;;;23.00;50.10;;;;;;4912133;29;20040;-51
2023/07/08 00:21:26;;;;;;;3.58;2.47;;;23.00;49.90;;;;;;4916728;29;20054;-50
2023/07/08 00:23:57;;;;;;;3.03;2.63;;;22.90;50.00;;;;;;4908360;29;20562;-52
2023/07/08 00:26:30;;;;;;;2.65;2.20;;;22.90;50.10;;;;;;4915478;29;20111;-51
2023/07/08 00:29:02;;;;;;;3.58;3.05;;;22.80;50.50;;;;;;4915281;29;20049;-51
2023/07/08 00:31:33;;;;;;;3.67;2.90;;;22.80;50.30;;;;;;4915509;29;20048;-51
2023/07/08 00:34:03;;;;;;;2.55;2.20;;;22.80;50.50;;;;;;4893733;29;20036;-51
2023/07/08 00:36:32;;;;;;;3.22;2.92;;;22.70;51.30;;;;;;4897666;29;20040;-51
2023/07/08 00:39:02;;;;;;;2.70;2.50;;;22.70;50.70;;;;;;4915115;29;20068;-52
2023/07/08 00:41:38;;;;;;;3.20;2.38;;;22.70;51.00;;;;;;4898507;29;20052;-51
2023/07/08 00:44:13;;;;;;;3.95;2.58;;;22.70;51.80;;;;;;4891314;29;20057;-51
2023/07/08 00:46:49;;;;;;;2.67;2.45;;;22.70;51.40;;;;;;4891998;29;20051;-49
2023/07/08 00:49:40;;;;;;;3.25;3.00;;;22.70;52.00;;;;;;4899755;29;20072;-51
2023/07/08 00:52:45;;;;;;;2.75;2.28;;;22.70;52.20;;;;;;4895741;29;20048;-51
2023/07/08 00:55:13;;;;;;;2.65;2.42;;;22.70;52.40;;;;;;4872609;29;20047;-51
2023/07/08 00:57:47;;;;;;;2.58;2.35;;;22.70;51.90;;;;;;4908155;29;20047;-47
2023/07/08 01:00:16;;;;;;;2.53;2.28;;;22.70;51.90;;;;;;4898945;29;20044;-50
2023/07/08 01:02:55;;;;;;;3.22;2.63;;;22.70;52.30;;;;;;4913600;29;20040;-51
2023/07/08 01:05:27;;;;;;;2.65;2.45;;;22.70;52.60;;;;;;4913263;29;20483;-48
2023/07/08 01:07:58;;;;;;;;;;;22.70;52.30;;;;;;4915494;29;20055;-47
2023/07/08 01:10:39;;;;;;;3.40;2.40;;;22.80;51.00;;;;;;4899065;29;19922;-47
2023/07/08 01:13:08;;;;;;;2.88;2.03;;;22.80;51.90;;;;;;4895167;29;20449;-51
2023/07/08 01:15:42;;;;;;;3.28;2.95;;;22.80;52.30;;;;;;4912426;29;20051;-51
2023/07/08 01:18:11;;;;;;;3.47;3.17;;;22.80;52.60;;;;;;4894366;29;20082;-49
2023/07/08 01:20:39;;;;;;;3.38;2.58;;;22.80;52.40;;;;;;4907690;29;20044;-46
2023/07/08 01:23:08;;;;;;;3.75;2.65;;;22.80;52.60;;;;;;4896223;29;20052;-51
2023/07/08 01:25:35;;;;;;;2.90;2.60;;;22.80;52.70;;;;;;4898012;29;20083;-51
2023/07/08 01:28:02;;;;;;;3.38;2.67;;;22.80;52.70;;;;;;4897677;29;20127;-52
2023/07/08 01:30:30;;;;;;;3.47;2.85;;;22.80;52.80;;;;;;4914019;29;20083;-51
2023/07/08 01:33:04;;;;;;;2.50;2.30;;;22.90;53.00;;;;;;4910083;29;20028;-50
2023/07/08 01:35:39;;;;;;;3.00;2.70;;;22.90;53.20;;;;;;4915174;29;20112;-49
2023/07/08 01:38:22;;;;;;;3.03;2.67;;;22.90;53.10;;;;;;4914686;29;20067;-48
2023/07/08 01:40:54;;;;;;;2.65;2.42;;;22.90;53.20;;;;;;4908799;29;20465;-48
2023/07/08 01:43:29;;;;;;;4.15;3.03;;;22.90;53.20;;;;;;4908633;29;20464;-47
2023/07/08 01:46:00;;;;;;;3.03;2.60;;;22.90;53.10;;;;;;4915650;29;20103;-49
2023/07/08 01:48:35;;;;;;;5.05;2.63;;;22.90;53.60;;;;;;4897091;29;20135;-52
2023/07/08 01:51:05;;;;;;;4.47;2.35;;;22.90;53.50;;;;;;4912335;29;20051;-51
2023/07/08 01:53:45;;;;;;;3.35;2.65;;;22.90;53.60;;;;;;4890913;29;20656;-51
2023/07/08 01:56:16;;;;;;;2.75;2.20;;;22.90;53.90;;;;;;4914145;29;20051;-51
2023/07/08 01:58:43;;;;;;;2.83;2.55;;;22.90;53.50;;;;;;4888922;29;20394;-50
2023/07/08 02:01:10;;;;;;;3.25;2.67;;;22.90;53.70;;;;;;4898552;29;20379;-52
2023/07/08 02:03:37;;;;;;;3.03;2.67;;;22.90;53.70;;;;;;4907361;29;20044;-47
2023/07/08 02:06:04;;;;;;;2.97;2.42;;;22.90;53.70;;;;;;4897962;29;20112;-51
2023/07/08 02:08:38;;;;;;;2.80;2.60;;;22.90;53.80;;;;;;4913184;29;20052;-51
2023/07/08 02:11:09;;;;;;;2.60;2.40;;;22.80;53.80;;;;;;4897334;29;20048;-50
2023/07/08 02:13:36;;;;;;;2.58;2.38;;;22.80;53.80;;;;;;4886598;29;20096;-50
2023/07/08 02:16:06;;;;;;;2.63;2.40;;;22.80;53.80;;;;;;4898108;29;20417;-52
2023/07/08 02:18:33;;;;;;;2.75;2.50;;;22.80;54.00;;;;;;4896414;29;20074;-51
2023/07/08 02:21:02;;;;;;;2.70;2.45;;;22.80;53.70;;;;;;4893002;29;20509;-49
2023/07/08 02:23:33;;;;;;;2.65;2.45;;;22.70;53.70;;;;;;4906279;29;20056;-47
2023/07/08 02:26:00;;;;;;;3.08;2.88;;;22.60;53.50;;;;;;4897685;29;20750;-50
2023/07/08 02:28:29;;;;;;;2.50;2.30;;;22.70;53.60;;;;;;4913047;29;20127;-48
2023/07/08 02:31:07;;;;;;;2.55;2.35;;;22.60;53.50;;;;;;4893905;29;20510;-50
2023/07/08 02:33:34;;;;;;;3.15;2.75;;;22.50;53.60;;;;;;4896030;29;20694;-48
2023/07/08 02:36:01;;;;;;;3.35;2.25;;;22.50;53.30;;;;;;4914535;29;20524;-47
2023/07/08 02:38:28;;;;;;;5.43;2.58;;;22.40;53.30;;;;;;4909777;29;20031;-49
2023/07/08 02:40:55;;;;;;;5.65;2.30;;;22.30;53.30;;;;;;4914196;29;20048;-49
2023/07/08 02:43:22;;;;;;;2.75;2.22;;;22.30;53.30;;;;;;4911934;29;20122;-48
2023/07/08 02:45:52;;;;;;;3.03;2.55;;;22.10;53.20;;;;;;4897269;29;20071;-50
2023/07/08 02:48:24;;;;;;;2.92;2.67;;;22.10;53.60;;;;;;4891373;29;20045;-50
2023/07/08 02:50:53;;;;;;;5.32;2.88;;;22.00;53.60;;;;;;4905771;29;20202;-48
2023/07/08 02:53:24;;;;;;;2.25;2.08;;;22.00;53.30;;;;;;4899626;29;20048;-48
2023/07/08 02:55:50;;;;;;;2.80;2.50;;;21.90;53.60;;;;;;4897300;29;20523;-47
2023/07/08 02:58:18;;;;;;;3.17;2.63;;;21.80;53.50;;;;;;4913090;29;20087;-47
2023/07/08 03:01:00;;;;;;;2.78;2.38;;;21.80;53.70;;;;;;4895538;29;20425;-47
2023/07/08 03:03:32;;;;;;;2.47;2.08;;;21.70;54.00;;;;;;4893955;29;20533;-47
2023/07/08 03:06:02;;;;;;;3.03;2.67;;;21.60;53.50;;;;;;4905012;29;20040;-47
2023/07/08 03:08:30;;;;;;;4.65;2.83;;;21.60;53.70;;;;;;4887996;29;20468;-47
2023/07/08 03:11:01;;;;;;;4.05;2.50;;;21.50;53.70;;;;;;4911403;29;20040;-49
2023/07/08 03:13:30;;;;;;;3.15;2.50;;;21.40;53.70;;;;;;4890218;29;20139;-51
2023/07/08 03:16:00;;;;;;;3.00;2.50;;;21.40;53.90;;;;;;4891426;29;20159;-47
2023/07/08 03:18:29;;;;;;;2.95;2.30;;;21.30;54.00;;;;;;4895900;29;20078;-48
2023/07/08 03:20:58;;;;;;;3.55;2.65;;;21.30;54.00;;;;;;4914690;29;20044;-47
2023/07/08 03:23:29;;;;;;;3.10;2.80;;;21.20;54.40;;;;;;4885224;29;20064;-49
2023/07/08 03:25:56;;;;;;;4.50;2.60;;;21.10;54.30;;;;;;4913923;29;20043;-50
2023/07/08 03:28:24;;;;;;;3.15;2.85;;;21.10;54.20;;;;;;4895943;29;20070;-49
2023/07/08 03:30:53;;;;;;;3.85;2.60;;;21.10;54.30;;;;;;4897822;29;20048;-51
2023/07/08 03:33:23;;;;;;;2.50;2.30;;;21.00;54.40;;;;;;4894546;29;20068;-50
2023/07/08 03:35:50;;;;;;;2.50;2.30;;;20.90;54.40;;;;;;4896351;29;20553;-51
2023/07/08 03:38:18;;;;;;;2.60;2.30;;;20.90;54.40;;;;;;4881205;29;20040;-48
2023/07/08 03:40:50;;;;;;;3.72;2.58;;;20.90;54.60;;;;;;4894797;29;20040;-51
2023/07/08 03:43:19;;;;;;;4.25;2.65;;;20.80;54.70;;;;;;4891687;29;20063;-51
2023/07/08 03:45:57;;;;;;;2.72;2.53;;;20.80;54.80;;;;;;4906481;29;20063;-51
2023/07/08 03:48:26;;;;;;;2.47;2.28;;;20.80;54.80;;;;;;4913063;29;20044;-50
2023/07/08 03:51:05;;;;;;;3.15;2.78;;;20.70;54.90;;;;;;4890208;29;20044;-51
2023/07/08 03:53:31;;;;;;;;;;;20.70;55.30;;;;;;4891265;29;20049;-48
2023/07/08 03:55:58;;;;;;;2.35;2.15;;;20.80;54.40;;;;;;4896719;29;19927;-51
2023/07/08 03:58:28;;;;;;;3.17;2.70;;;20.70;54.70;;;;;;4899004;29;20462;-48
2023/07/08 04:00:57;;;;;;;3.30;3.00;;;20.70;55.00;;;;;;4900872;29;20048;-49
2023/07/08 04:03:27;;;;;;;3.03;2.67;;;20.70;55.60;;;;;;4893497;29;20052;-51
2023/07/08 04:05:55;;;;;;;2.95;2.75;;;20.60;55.70;;;;;;4885477;29;20070;-47
2023/07/08 04:08:23;;;;;;;3.47;2.92;;;20.60;55.50;;;;;;4899672;29;20440;-47
2023/07/08 04:10:52;;;;;;;2.90;2.70;;;20.60;55.70;;;;;;4900887;29;20442;-49
2023/07/08 04:13:21;;;;;;;2.58;2.35;;;20.70;55.90;;;;;;4910558;29;20040;-48
2023/07/08 04:15:56;;;;;;;5.07;3.67;;;20.60;55.90;;;;;;4917183;29;20409;-48
2023/07/08 04:18:22;;;;;;;2.65;2.47;;;20.60;56.40;;;;;;4916360;29;20040;-48
2023/07/08 04:20:52;;;;;;;3.03;2.72;;;20.60;56.00;;;;;;4913279;29;20128;-47
2023/07/08 04:23:25;;;;;;;5.82;2.72;;;20.50;56.10;;;;;;4911815;29;20561;-48
2023/07/08 04:25:54;;;;;;;3.35;2.58;;;20.60;56.30;;;;;;4915829;29;20068;-50
2023/07/08 04:28:27;;;;;;;3.33;3.03;;;20.60;56.60;;;;;;4916114;29;20131;-49
2023/07/08 04:30:56;;;;;;;3.40;2.90;;;20.60;56.60;;;;;;4916785;29;20076;-47
2023/07/08 04:33:26;;;;;;;3.92;2.80;;;20.60;56.90;;;;;;4912659;29;20055;-48
2023/07/08 04:35:54;;;;;;;4.28;3.10;;;20.40;56.90;;;;;;4908701;29;20457;-46
2023/07/08 04:38:24;;;;;;;3.25;2.95;;;20.70;57.50;;;;;;4916272;29;20052;-48
2023/07/08 04:40:53;;;;;;;3.53;3.00;;;20.70;58.10;;;;;;4911961;29;20041;-48
2023/07/08 04:43:21;;;;;;;2.95;2.65;;;20.80;58.30;;;;;;4916341;29;20046;-49
2023/07/08 04:45:52;;;;;;;4.72;3.08;;;20.80;58.70;;;;;;4916740;29;20048;-47
2023/07/08 04:48:22;;;;;;;3.50;3.20;;;21.00;59.20;;;;;;4912648;29;20048;-47
2023/07/08 04:50:54;;;;;;;3.97;3.10;;;21.00;58.90;;;;;;4916517;29;20303;-48
2023/07/08 04:53:20;;;;;;;3.90;3.13;;;21.20;59.20;;;;;;4909065;29;20123;-47
2023/07/08 04:55:54;;;;;;;3.40;3.10;;;21.20;58.70;;;;;;4916177;29;20473;-47
2023/07/08 04:58:22;;;;;;;3.50;3.20;;;21.30;59.40;;;;;;4915930;29;20048;-48
2023/07/08 05:00:49;;;;;;;4.57;3.08;;;21.40;58.90;;;;;;4917939;29;20040;-48
2023/07/08 05:03:16;;;;;;;5.18;3.05;;;21.40;59.00;;;;;;4908065;29;20678;-48
2023/07/08 05:05:45;;;;;;;4.53;2.92;;;21.50;59.00;;;;;;4914458;29;20054;-47
2023/07/08 05:08:14;;;;;;;3.45;3.15;;;21.60;59.10;;;;;;4899563;29;20543;-48
2023/07/08 05:10:42;;;;;;;3.10;2.75;;;21.70;59.40;;;;;;4916505;29;20048;-49
2023/07/08 05:13:10;;;;;;;3.13;2.75;;;21.70;59.10;;;;;;4911913;29;20041;-51
2023/07/08 05:15:37;;;;;;;3.55;2.67;;;21.70;59.10;;;;;;4915980;29;20643;-47
2023/07/08 05:18:08;;;;;;;3.45;3.15;;;21.80;59.20;;;;;;4915615;29;20046;-47
2023/07/08 05:20:36;;;;;;;3.88;3.42;;;21.80;59.20;;;;;;4912283;29;20069;-47
2023/07/08 05:23:05;;;;;;;3.90;3.38;;;21.90;59.10;;;;;;4912218;29;20076;-47
2023/07/08 05:25:32;;;;;;;3.47;3.17;;;21.90;59.10;;;;;;4911819;29;20059;-47
2023/07/08 05:27:59;;;;;;;5.45;3.25;;;21.90;59.20;;;;;;4914963;29;20123;-47
2023/07/08 05:30:28;;;;;;;3.58;3.00;;;22.00;59.20;;;;;;4914602;29;20059;-49
2023/07/08 05:32:55;;;;;;;4.13;3.30;;;22.00;59.40;;;;;;4900933;29;20124;-47
2023/07/08 05:35:24;;;;;;;4.50;3.63;;;22.00;59.30;;;;;;4914562;29;20135;-46
2023/07/08 05:37:56;;;;;;;4.40;4.00;;;22.10;59.30;;;;;;4914446;29;20047;-47
2023/07/08 05:40:23;;;;;;;3.50;3.08;;;22.10;59.10;;;;;;4908550;29;20048;-47
2023/07/08 05:42:50;;;;;;;4.18;3.40;;;22.10;59.20;;;;;;4913764;29;20063;-47
2023/07/08 05:45:17;;;;;;;3.83;3.47;;;22.20;59.30;;;;;;4912722;29;20044;-48
2023/07/08 05:47:48;;;;;;;3.70;3.40;;;22.20;59.40;;;;;;4914415;29;20130;-47
2023/07/08 05:50:19;;;;;;;5.72;4.03;;;22.30;59.40;;;;;;4909103;29;20131;-47
2023/07/08 05:52:45;;;;;;;4.20;3.80;;;22.30;59.20;;;;;;4911585;29;20045;-48
2023/07/08 05:55:16;;;;;;;4.53;3.47;;;22.40;59.70;;;;;;4910031;29;20127;-47
2023/07/08 05:57:44;;;;;;;4.38;3.97;;;22.50;58.50;;;;;;4914300;29;20120;-47
2023/07/08 06:00:16;;;;;;;4.03;3.60;;;22.60;57.70;;;;;;4914124;29;20095;-47
2023/07/08 06:03:03;;;;;;;4.22;3.58;;;22.60;56.50;;;;;;4905274;29;20051;-47
2023/07/08 06:05:30;;;;;;;4.68;3.58;;;22.70;56.60;;;;;;4914098;29;20048;-48
2023/07/08 06:07:58;;;;;;;4.65;3.97;;;22.80;56.70;;;;;;4906501;29;20055;-49
2023/07/08 06:10:25;;;;;;;4.68;3.75;;;22.90;55.00;;;;;;4913450;29;20086;-51
2023/07/08 06:12:51;;;;;;;4.75;4.25;;;23.00;53.80;;;;;;4906568;29;20044;-48
2023/07/08 06:15:22;;;;;;;5.43;3.70;;;23.10;53.50;;;;;;4914051;29;20044;-48
2023/07/08 06:17:49;;;;;;;6.45;4.15;;;23.20;55.70;;;;;;4898143;29;20040;-49
2023/07/08 06:20:16;;;;;;;4.75;4.35;;;23.20;55.80;;;;;;4907747;29;20044;-47
2023/07/08 06:22:43;;;;;;;5.47;4.15;;;23.30;54.90;;;;;;4909209;29;20131;-48
2023/07/08 06:25:14;;;;;;;4.95;3.97;;;23.40;54.70;;;;;;4891060;29;20048;-47
2023/07/08 06:27:41;;;;;;;3.83;3.42;;;23.40;55.40;;;;;;4912072;29;20048;-47
2023/07/08 06:30:08;;;;;;;6.28;3.80;;;23.40;55.10;;;;;;4914117;29;20412;-49
2023/07/08 06:32:37;;;;;;;6.63;4.18;;;23.50;54.40;;;;;;4909101;29;20123;-51
2023/07/08 06:35:04;;;;;;;3.67;3.38;;;23.60;53.80;;;;;;4914301;29;20055;-46
2023/07/08 06:37:31;;;;;;;6.30;3.97;;;23.60;53.40;;;;;;4914274;29;20052;-46
2023/07/08 06:39:58;;;;;;;4.57;4.03;;;23.60;53.20;;;;;;4911419;29;20047;-48
2023/07/08 06:42:25;;;;;;;5.85;4.65;;;23.70;52.50;;;;;;4913137;29;20048;-48
2023/07/08 06:45:15;;;;;;;6.25;4.47;;;23.70;52.00;;;;;;4904388;29;20123;-50
2023/07/08 06:47:45;;;;;;;5.97;4.38;;;23.80;51.30;;;;;;4909170;29;20056;-47
2023/07/08 06:50:14;;;;;;;;;;;23.90;51.90;;;;;;4915471;29;20044;-48
2023/07/08 06:52:41;;;;;;;6.07;4.32;;;24.00;51.60;;;;;;4911076;29;20439;-49
2023/07/08 06:55:12;;;;;;;6.97;4.60;;;24.00;51.10;;;;;;4911544;29;20111;-48
2023/07/08 06:57:46;;;;;;;6.35;4.18;;;24.10;50.70;;;;;;4913191;29;20100;-49
2023/07/08 07:00:20;;;;;;;5.95;4.35;;;24.20;51.10;;;;;;4912739;29;20051;-48
2023/07/08 07:02:49;;;;;;;5.68;5.15;;;24.30;50.20;;;;;;4907643;29;20079;-47
2023/07/08 07:05:18;;;;;;;5.85;4.93;;;24.30;50.10;;;;;;4914475;29;20047;-47
2023/07/08 07:07:48;;;;;;;6.32;4.32;;;24.40;49.70;;;;;;4913198;29;20111;-51
2023/07/08 07:10:19;;;;;;;8.13;4.90;;;24.50;49.40;;;;;;4911106;29;20041;-48
2023/07/08 07:12:46;;;;;;;5.20;4.65;;;24.60;49.50;;;;;;4911151;29;20566;-47
2023/07/08 07:15:17;;;;;;;7.43;4.72;;;24.70;49.20;;;;;;4913445;29;20060;-48
2023/07/08 07:17:44;;;;;;;5.68;4.65;;;24.90;49.00;;;;;;4910549;29;20123;-50
2023/07/08 07:20:12;;;;;;;8.90;4.60;;;24.90;48.40;;;;;;4908243;29;20521;-49
2023/07/08 07:22:40;;;;;;;8.30;5.53;;;25.10;48.20;;;;;;4911952;29;20123;-50
2023/07/08 07:25:12;;;;;;;7.35;4.55;;;25.20;47.50;;;;;;4912042;29;20051;-48
2023/07/08 07:27:41;;;;;;;13.43;5.65;;;25.30;47.30;;;;;;4912694;29;20060;-50
2023/07/08 07:30:17;;;;;;;8.07;5.25;;;25.40;46.70;;;;;;4914514;29;20047;-48
2023/07/08 07:32:46;;;;;;;9.32;5.65;;;25.60;47.10;;;;;;4908763;29;20052;-49
2023/07/08 07:35:18;;;;;;;8.35;6.03;;;25.70;47.00;;;;;;4913425;29;20050;-51
2023/07/08 07:37:50;;;;;;;8.13;5.43;;;25.80;46.40;;;;;;4913189;29;20100;-49
2023/07/08 07:40:19;;;;;;;9.38;5.53;;;25.80;45.80;;;;;;4911593;29;20125;-49
2023/07/08 07:42:48;;;;;;;8.75;4.97;;;25.90;45.70;;;;;;4911089;29;20052;-50
2023/07/08 07:45:15;;;;;;;11.73;5.63;;;26.00;46.20;;;;;;4913384;29;20044;-50
2023/07/08 07:47:41;;;;;;;9.43;5.78;;;26.00;45.70;;;;;;4899289;29;20056;-50
2023/07/08 07:50:09;;;;;;;8.50;5.70;;;26.10;45.70;;;;;;4908708;29;20128;-52
2023/07/08 07:52:36;;;;;;;8.52;5.63;;;26.10;45.70;;;;;;4909455;29;20492;-52
2023/07/08 07:55:04;;;;;;;9.35;5.60;;;26.20;45.30;;;;;;4906758;29;20167;-52
2023/07/08 07:57:30;;;;;;;7.82;5.40;;;26.20;45.20;;;;;;4916211;29;20108;-50
2023/07/08 07:59:57;;;;;;;5.78;4.97;;;26.30;44.80;;;;;;4914053;29;20139;-47
2023/07/08 08:02:23;;;;;;;10.30;5.57;;;26.30;45.20;;;;;;4909375;29;20398;-48
2023/07/08 08:04:50;;;;;;;6.72;5.15;;;26.40;45.30;;;;;;4909509;29;20092;-50
2023/07/08 08:07:17;;;;;;;8.43;4.97;;;26.40;45.10;;;;;;4911741;29;20079;-49
2023/07/08 08:09:44;;;;;;;7.50;5.47;;;26.50;44.90;;;;;;4910827;29;20577;-51
2023/07/08 08:12:11;;;;;;;10.27;5.03;;;26.50;44.40;;;;;;4912166;29;20718;-49
2023/07/08 08:14:38;;;;;;;9.88;5.18;;;26.50;44.80;;;;;;4912177;29;20632;-48
2023/07/08 08:17:06;;;;;;;7.40;5.05;;;26.60;44.90;;;;;;4904737;29;20044;-50
2023/07/08 08:19:35;;;;;;;8.93;5.38;;;26.70;44.80;;;;;;4903665;29;20683;-51
2023/07/08 08:22:04;;;;;;;5.68;4.45;;;26.70;44.40;;;;;;4912472;29;20042;-49
2023/07/08 08:24:31;;;;;;;9.13;5.07;;;26.80;44.40;;;;;;4907288;29;20052;-47
2023/07/08 08:26:57;;;;;;;9.43;4.60;;;26.90;44.90;;;;;;4895625;29;20601;-50
2023/07/08 08:29:33;;;;;;;8.90;5.95;;;26.90;44.30;;;;;;4908702;29;20052;-47
2023/07/08 08:31:59;;;;;;;6.45;5.07;;;27.00;44.50;;;;;;4912255;29;20052;-50
2023/07/08 08:34:26;;;;;;;8.60;5.13;;;27.00;44.60;;;;;;4895643;29;20557;-51
2023/07/08 08:36:55;;;;;;;6.93;4.47;;;27.10;44.50;;;;;;4909889;29;20045;-47
2023/07/08 08:39:22;;;;;;;9.82;5.47;;;27.20;44.40;;;;;;4897126;29;20690;-50
2023/07/08 08:41:53;;;;;;;8.93;5.43;;;27.30;44.40;;;;;;4916139;29;20070;-47
2023/07/08 08:44:35;;;;;;;7.93;4.78;;;27.30;44.00;;;;;;4912213;29;20115;-48
2023/07/08 08:47:13;;;;;;;9.43;5.43;;;27.50;43.80;;;;;;4915598;29;20040;-48
2023/07/08 08:49:51;;;;;;;6.45;4.93;;;27.50;43.80;;;;;;4918425;29;20091;-50
2023/07/08 08:52:17;;;;;;;9.15;5.50;;;27.60;43.30;;;;;;4912496;29;20046;-48
2023/07/08 08:54:46;;;;;;;9.43;5.00;;;27.70;43.40;;;;;;4911020;29;20051;-48
2023/07/08 08:57:25;;;;;;;10.70;5.22;;;27.70;43.40;;;;;;4896117;29;20701;-49
2023/07/08 08:59:54;;;;;;;6.35;4.53;;;27.80;43.00;;;;;;4894506;29;20041;-51
2023/07/08 09:02:42;;;;;;;6.20;4.68;;;27.80;43.70;;;;;;4912383;29;20134;-49
2023/07/08 09:05:11;;;;;;;5.80;4.82;;;27.90;43.50;;;;;;4913603;29;20079;-47
2023/07/08 09:08:16;;;;;;;7.75;4.93;;;28.00;43.30;;;;;;4910560;29;20055;-51
2023/07/08 09:11:18;;;;;;;8.18;4.68;;;28.00;43.10;;;;;;4915664;29;20044;-52
2023/07/08 09:13:48;;;;;;;7.70;5.20;;;28.20;43.60;;;;;;4914389;29;20210;-51
2023/07/08 09:16:39;;;;;;;7.18;4.72;;;28.30;43.80;;;;;;4909340;29;20044;-51
2023/07/08 09:19:33;;;;;;;11.13;5.15;;;28.30;43.40;;;;;;4915406;29;20047;-51
2023/07/08 09:22:13;;;;;;;6.35;4.95;;;28.40;43.00;;;;;;4911117;29;20650;-51
2023/07/08 09:24:56;;;;;;;8.45;4.82;;;28.50;42.50;;;;;;4912257;29;20143;-49
2023/07/08 09:27:23;;;;;;;9.63;5.15;;;28.60;41.70;;;;;;4905753;29;20047;-52
2023/07/08 09:29:49;;;;;;;8.48;5.05;;;28.60;41.60;;;;;;4898331;29;20080;-49
2023/07/08 09:32:18;;;;;;;8.07;4.72;;;28.70;41.50;;;;;;4915166;29;20037;-51
2023/07/08 09:35:02;;;;;;;9.43;5.32;;;28.80;41.40;;;;;;4914276;29;20040;-48
2023/07/08 09:37:38;;;;;;;6.35;5.25;;;28.90;41.00;;;;;;4912473;29;20079;-48
2023/07/08 09:40:18;;;;;;;7.25;5.50;;;29.00;41.20;;;;;;4917693;29;20639;-51
2023/07/08 09:42:54;;;;;;;6.70;5.18;;;29.10;40.80;;;;;;4913757;29;20055;-51
2023/07/08 09:45:24;;;;;;;8.60;5.28;;;29.20;40.40;;;;;;4912695;29;20045;-48
2023/07/08 09:47:56;;;;;;;11.20;5.85;;;29.20;41.00;;;;;;4897564;29;20055;-50
2023/07/08 09:50:27;;;;;;;;;;;29.30;40.80;;;;;;4912873;29;20055;-51
2023/07/08 09:53:04;;;;;;;6.85;4.53;;;29.40;41.50;;;;;;4907785;29;19950;-51
2023/07/08 09:55:31;;;;;;;6.18;4.20;;;29.50;41.50;;;;;;4911205;29;20043;-51
2023/07/08 09:58:01;;;;;;;8.50;4.88;;;29.50;40.90;;;;;;4916091;29;20099;-51
2023/07/08 10:00:37;;;;;;;6.65;4.28;;;29.60;40.50;;;;;;4916845;29;20063;-49
2023/07/08 10:03:20;;;;;;;9.25;5.47;;;29.70;40.30;;;;;;4909471;29;20556;-51
2023/07/08 10:05:49;;;;;;;9.75;4.88;;;29.70;40.10;;;;;;4911617;29;20087;-52
2023/07/08 10:08:21;;;;;;;7.55;5.40;;;29.80;40.10;;;;;;4914942;29;20524;-51
2023/07/08 10:10:54;;;;;;;;;;;29.90;40.00;;;;;;4906438;29;20573;-51
2023/07/08 10:13:34;;;;;;;;;;;30.00;40.50;;;;;;4916181;29;19970;-51
2023/07/08 10:16:29;;;;;;;11.73;5.43;;;30.20;40.90;;;;;;4913592;29;20039;-51
2023/07/08 10:18:59;;;;;;;8.18;5.53;;;30.20;39.30;;;;;;4910547;29;20541;-51
2023/07/08 10:21:45;;;;;;;8.30;5.20;;;30.20;40.10;;;;;;4912820;29;20131;-52
2023/07/08 10:24:36;;;;;;;6.15;4.75;;;30.30;39.20;;;;;;4908139;29;20082;-47
2023/07/08 10:27:33;;;;;;;7.25;5.07;;;30.30;39.30;;;;;;4913268;29;20119;-52
2023/07/08 10:30:06;;;;;;;7.70;5.35;;;30.40;39.80;;;;;;4908688;29;20127;-52
2023/07/08 10:33:08;;;;;;;5.45;4.90;;;30.50;39.50;;;;;;4914550;29;20500;-48
2023/07/08 10:35:42;;;;;;;7.53;5.57;;;30.60;39.60;;;;;;4909213;29;20121;-49
2023/07/08 10:38:30;;;;;;;6.35;4.82;;;30.70;38.70;;;;;;4912845;29;20488;-52
2023/07/08 10:41:12;;;;;;;7.78;5.07;;;30.70;38.60;;;;;;4912107;29;20048;-49
2023/07/08 10:44:04;;;;;;;9.23;4.80;;;30.80;38.90;;;;;;4912869;29;20040;-51
2023/07/08 10:46:36;;;;;;;;;;;30.90;38.20;;;;;;4913202;29;20086;-52
2023/07/08 10:49:21;;;;;;;7.07;4.50;;;31.00;39.30;;;;;;4906175;29;20399;-49
2023/07/08 10:52:15;;;;;;;5.90;5.05;;;31.10;38.70;;;;;;4912466;29;20038;-51
2023/07/08 10:55:10;;;;;;;5.40;4.65;;;31.20;38.80;;;;;;4912854;29;20044;-52
2023/07/08 10:58:05;;;;;;;5.25;4.57;;;31.30;38.20;;;;;;4909534;29;20118;-48
2023/07/08 11:00:52;;;;;;;8.77;5.10;;;31.40;37.70;;;;;;4891148;29;20048;-48
2023/07/08 11:03:55;;;;;;;6.95;4.60;;;31.40;37.50;;;;;;4908244;29;20413;-52
2023/07/08 11:06:40;;;;;;;8.77;5.63;;;31.60;37.40;;;;;;4907019;29;20059;-52
2023/07/08 11:09:09;;;;;;;6.50;4.75;;;31.60;37.00;;;;;;4913303;29;20068;-52
2023/07/08 11:11:39;;;;;;;7.50;5.28;;;31.70;37.40;;;;;;4906307;29;20047;-50
2023/07/08 11:14:05;;;;;;;7.03;5.53;;;31.70;37.00;;;;;;4913547;29;20083;-52
2023/07/08 11:16:43;;;;;;;7.47;6.00;;;31.80;36.80;;;;;;4932368;23;20111;-44
2023/07/08 11:19:19;;;;;;;5.47;4.60;;;31.90;36.90;;;;;;4914787;29;20505;-47
2023/07/08 11:21:48;;;;;;;7.75;5.40;;;31.90;36.30;;;;;;4913545;29;20040;-43
2023/07/08 11:24:24;;;;;;;7.55;5.35;;;32.00;36.60;;;;;;4920630;29;20063;-44
2023/07/08 11:26:58;;;;;;;5.65;5.00;;;32.00;37.10;;;;;;4935603;28;20137;-44
2023/07/08 11:29:37;;;;;;;7.18;5.25;;;32.10;37.00;;;;;;4938714;28;20058;-43
2023/07/08 11:32:06;;;;;;;8.13;4.95;;;32.20;36.70;;;;;;4932784;28;20044;-47
2023/07/08 11:34:35;;;;;;;8.00;4.97;;;32.30;37.30;;;;;;4933263;28;20115;-46
2023/07/08 11:37:03;;;;;;;6.88;4.85;;;32.40;37.00;;;;;;4916986;28;20050;-48
2023/07/08 11:39:42;;;;;;;8.02;4.78;;;32.40;36.10;;;;;;4931672;28;20048;-45
2023/07/08 11:42:31;;;;;;;6.63;4.53;;;32.60;36.60;;;;;;4932606;28;20047;-46
2023/07/08 11:44:59;;;;;;;7.70;4.72;;;32.70;36.50;;;;;;4932422;28;20071;-49
2023/07/08 11:47:37;;;;;;;6.65;4.93;;;32.70;36.20;;;;;;4945317;28;20095;-44
2023/07/08 11:50:29;;;;;;;6.55;4.93;;;32.80;36.40;;;;;;4935092;28;20527;-46
2023/07/08 11:53:01;;;;;;;5.22;4.70;;;32.90;35.60;;;;;;4919957;28;20102;-49
2023/07/08 11:55:58;;;;;;;6.03;4.72;;;33.00;35.10;;;;;;4937892;28;20043;-45
2023/07/08 11:58:31;;;;;;;8.65;4.90;;;33.10;35.40;;;;;;4939286;28;20047;-47
2023/07/08 12:01:23;;;;;;;5.85;4.47;;;33.20;35.20;;;;;;4940865;28;20052;-46
2023/07/08 12:04:01;;;;;;;5.72;4.45;;;33.20;34.50;;;;;;4943610;28;20058;-46
2023/07/08 12:06:30;;;;;;;6.35;4.85;;;33.40;35.00;;;;;;4940884;28;20090;-45
2023/07/08 12:08:59;;;;;;;7.13;5.07;;;33.40;35.40;;;;;;4932044;28;20072;-44
2023/07/08 12:11:44;;;;;;;5.43;4.75;;;33.50;34.70;;;;;;4931962;28;20047;-45
2023/07/08 12:14:11;;;;;;;6.25;4.82;;;33.60;34.60;;;;;;4948508;28;20039;-44
2023/07/08 12:16:38;;;;;;;5.97;4.63;;;33.70;34.20;;;;;;4938102;28;20146;-46
2023/07/08 12:19:06;;;;;;;5.03;4.38;;;33.70;33.50;;;;;;4935968;28;20050;-48
2023/07/08 12:21:36;;;;;;;4.97;4.43;;;33.80;34.10;;;;;;4936041;28;20505;-49
2023/07/08 12:24:06;;;;;;;5.30;4.10;;;33.90;33.30;;;;;;4935774;28;20595;-46
2023/07/08 12:26:34;;;;;;;5.82;4.45;;;34.00;33.70;;;;;;4937551;28;20415;-49
2023/07/08 12:29:01;;;;;;;4.68;3.85;;;34.00;33.60;;;;;;4938154;28;20057;-50
2023/07/08 12:31:35;;;;;;;10.35;4.70;;;34.10;33.10;;;;;;4936807;28;20103;-48
2023/07/08 12:34:14;;;;;;;5.45;4.00;;;34.20;32.90;;;;;;4940947;28;20140;-48
2023/07/08 12:36:45;;;;;;;6.63;4.85;;;34.30;32.30;;;;;;4936116;28;20046;-45
2023/07/08 12:39:17;;;;;;;4.60;3.50;;;34.30;32.60;;;;;;4944781;28;20519;-45
2023/07/08 12:41:46;;;;;;;4.32;3.90;;;34.40;33.00;;;;;;4942384;28;20126;-48
2023/07/08 12:44:23;;;;;;;6.38;4.55;;;34.50;32.90;;;;;;4935162;28;20051;-48
2023/07/08 12:46:53;;;;;;;4.10;3.72;;;34.60;31.70;;;;;;4940897;28;20051;-47
2023/07/08 12:49:27;;;;;;;5.30;4.25;;;34.70;31.70;;;;;;4934927;28;20152;-47
2023/07/08 12:51:56;;;;;;;6.28;4.53;;;34.80;32.40;;;;;;4935918;28;20417;-49
2023/07/08 12:54:28;;;;;;;5.57;4.28;;;34.90;31.80;;;;;;4943910;28;20530;-45
2023/07/08 12:56:55;;;;;;;5.05;4.18;;;35.00;32.30;;;;;;4939874;28;20047;-47
2023/07/08 12:59:30;;;;;;;5.57;4.32;;;35.20;31.90;;;;;;4934774;28;20046;-49
2023/07/08 13:01:56;;;;;;;6.45;4.60;;;35.30;31.50;;;;;;4936555;28;20093;-47
2023/07/08 13:04:24;;;;;;;4.78;4.30;;;35.40;31.30;;;;;;4934397;28;20141;-49
2023/07/08 13:06:55;;;;;;;6.85;4.53;;;35.50;31.40;;;;;;4947770;28;20039;-47
2023/07/08 13:09:45;;;;;;;4.63;4.03;;;35.60;31.50;;;;;;4933722;29;20646;-44
2023/07/08 13:12:24;;;;;;;5.63;4.28;;;35.80;31.70;;;;;;4952452;28;20051;-47
2023/07/08 13:14:58;;;;;;;6.32;4.30;;;35.80;31.60;;;;;;4948255;28;20045;-48